Time;durP1;ratioP1;P1;durP2;ratioP2;P2;SDS_P1;SDS_P2;PMS_P1;PMS_P2;Temp;Humidity;BMP_temperature;BMP_pressure;BME280_temperature;BME280_humidity;BME280_pressure;Samples;Min_cycle;Max_cycle;Signal;HPM_P1;HPM_P2
2022/12/11 00:00:23;;;;;;;11.90;6.47;;;-0.40;99.90;;;;;;5003840;28;20299;-37
2022/12/11 00:02:49;;;;;;;10.67;6.90;;;-0.40;99.90;;;;;;5004452;28;20192;-39
2022/12/11 00:05:16;;;;;;;10.13;7.30;;;-0.40;99.90;;;;;;5007900;28;20180;-37
2022/12/11 00:07:42;;;;;;;9.60;6.60;;;-0.40;99.90;;;;;;4987213;28;20179;-35
2022/12/11 00:10:11;;;;;;;9.97;7.00;;;-0.40;99.90;;;;;;4991768;28;20207;-38
2022/12/11 00:12:37;;;;;;;12.30;8.10;;;-0.50;99.90;;;;;;5000355;28;20179;-40
2022/12/11 00:15:03;;;;;;;13.20;8.77;;;-0.50;99.90;;;;;;5018379;28;20184;-41
2022/12/11 00:17:29;;;;;;;18.37;9.50;;;-0.60;99.90;;;;;;5008366;28;20181;-37
2022/12/11 00:19:55;;;;;;;18.47;11.43;;;-0.60;99.90;;;;;;4990231;28;20183;-36
2022/12/11 00:22:21;;;;;;;32.10;17.20;;;-0.70;99.90;;;;;;4989379;28;20179;-36
2022/12/11 00:24:48;;;;;;;20.90;12.27;;;-0.70;99.90;;;;;;4988012;28;20173;-39
2022/12/11 00:27:14;;;;;;;18.67;11.23;;;-0.80;99.90;;;;;;5001154;28;20198;-37
2022/12/11 00:29:41;;;;;;;15.40;9.27;;;-0.80;99.90;;;;;;4999648;28;20215;-39
2022/12/11 00:32:11;;;;;;;16.87;10.43;;;-0.80;99.90;;;;;;5024022;28;20179;-38
2022/12/11 00:34:37;;;;;;;16.87;10.30;;;-0.90;99.90;;;;;;5004310;28;20181;-38
2022/12/11 00:37:04;;;;;;;14.17;9.87;;;-0.90;99.90;;;;;;5000390;28;20186;-38
2022/12/11 00:39:31;;;;;;;13.17;9.17;;;-0.90;99.90;;;;;;5006751;28;20204;-40
2022/12/11 00:41:58;;;;;;;13.30;9.07;;;-1.00;99.90;;;;;;5022977;28;20230;-38
2022/12/11 00:44:24;;;;;;;14.63;9.70;;;-1.00;99.90;;;;;;5023579;28;20176;-33
2022/12/11 00:46:50;;;;;;;15.43;10.23;;;-1.10;99.90;;;;;;5001739;28;20200;-40
2022/12/11 00:49:16;;;;;;;14.23;9.77;;;-1.10;99.90;;;;;;4983519;28;20685;-35
2022/12/11 00:51:42;;;;;;;13.17;8.17;;;-1.20;99.90;;;;;;5005475;28;20206;-38
2022/12/11 00:54:09;;;;;;;11.40;7.70;;;-1.30;99.90;;;;;;5024212;28;20232;-38
2022/12/11 00:56:35;;;;;;;13.43;8.40;;;-1.30;99.90;;;;;;5006648;28;20171;-36
2022/12/11 00:59:03;;;;;;;12.23;8.27;;;-1.40;99.90;;;;;;5006197;28;20183;-35
2022/12/11 01:01:29;;;;;;;10.40;7.27;;;-1.50;99.90;;;;;;5006543;28;20226;-38
2022/12/11 01:03:55;;;;;;;10.73;7.47;;;-1.60;99.90;;;;;;5000860;28;20176;-34
2022/12/11 01:06:24;;;;;;;9.37;6.60;;;-1.60;99.90;;;;;;4983131;28;20185;-36
2022/12/11 01:11:36;;;;;;;11.63;7.60;;;-1.70;99.90;;;;;;5004590;28;20201;-36
2022/12/11 01:14:03;;;;;;;10.30;7.40;;;-1.80;99.90;;;;;;4997558;28;20189;-35
2022/12/11 01:16:29;;;;;;;9.47;6.60;;;-1.80;99.90;;;;;;4997623;28;20181;-39
2022/12/11 01:18:56;;;;;;;11.37;7.07;;;-1.80;99.90;;;;;;5031387;28;20243;-35
2022/12/11 01:21:22;;;;;;;11.67;7.43;;;-1.90;99.90;;;;;;4997820;28;20213;-36
2022/12/11 01:23:49;;;;;;;11.87;7.47;;;-1.90;99.90;;;;;;5031371;28;20543;-36
2022/12/11 01:26:16;;;;;;;10.63;6.37;;;-1.90;99.90;;;;;;5031916;28;20182;-37
2022/12/11 01:28:42;;;;;;;10.80;7.63;;;-1.90;99.90;;;;;;4997480;28;20301;-37
2022/12/11 01:31:10;;;;;;;11.97;8.20;;;-1.90;99.90;;;;;;5031590;28;20190;-41
2022/12/11 01:33:36;;;;;;;13.10;8.17;;;-2.00;99.90;;;;;;5030942;28;20177;-35
2022/12/11 01:36:09;;;;;;;13.43;8.20;;;-2.00;99.90;;;;;;5031627;28;20167;-38
2022/12/11 01:38:35;;;;;;;14.63;8.83;;;-2.00;99.90;;;;;;5031053;28;20260;-37
2022/12/11 01:41:01;;;;;;;13.33;8.63;;;-2.00;99.90;;;;;;5013798;28;20199;-36
2022/12/11 01:43:27;;;;;;;13.93;8.07;;;-1.90;99.90;;;;;;5031595;28;20174;-36
2022/12/11 01:45:53;;;;;;;13.60;7.87;;;-1.80;99.90;;;;;;5013368;28;20190;-39
2022/12/11 01:48:28;;;;;;;12.93;8.80;;;-1.80;99.90;;;;;;5013330;28;20209;-34
2022/12/11 01:50:58;;;;;;;14.17;9.10;;;-1.70;99.90;;;;;;4997225;28;20324;-36
2022/12/11 01:53:32;;;;;;;13.50;8.83;;;-1.70;99.90;;;;;;4993296;28;20227;-38
2022/12/11 01:55:59;;;;;;;14.50;9.30;;;-1.70;99.90;;;;;;5002722;28;20231;-36
2022/12/11 01:58:43;;;;;;;15.23;9.23;;;-1.70;99.90;;;;;;4997054;28;20276;-38
2022/12/11 02:01:15;;;;;;;15.50;9.57;;;-1.70;99.90;;;;;;4997200;28;20202;-37
2022/12/11 02:03:41;;;;;;;12.47;8.60;;;-1.60;99.90;;;;;;4996539;28;20186;-37
2022/12/11 02:06:30;;;;;;;16.63;9.90;;;-1.60;99.90;;;;;;4997165;28;20190;-33
2022/12/11 02:08:56;;;;;;;15.83;9.70;;;-1.50;99.90;;;;;;5012497;28;20214;-34
2022/12/11 02:11:29;;;;;;;16.13;10.30;;;-1.50;99.90;;;;;;4996857;28;20206;-35
2022/12/11 02:14:11;;;;;;;13.87;8.80;;;-1.40;99.90;;;;;;5012627;28;20233;-40
2022/12/11 02:16:49;;;;;;;13.97;9.57;;;-1.40;99.90;;;;;;4996997;28;20193;-37
2022/12/11 02:19:31;;;;;;;17.47;10.63;;;-1.30;99.90;;;;;;4993307;28;20186;-38
2022/12/11 02:22:00;;;;;;;18.93;11.43;;;-1.30;99.90;;;;;;4993591;28;20203;-34
2022/12/11 02:24:34;;;;;;;17.07;10.63;;;-1.30;99.90;;;;;;4977275;28;20206;-38
2022/12/11 02:27:18;;;;;;;18.77;11.60;;;-1.30;99.90;;;;;;4984811;28;20182;-35
2022/12/11 02:30:00;;;;;;;19.67;11.37;;;-1.30;99.90;;;;;;5012856;28;20687;-35
2022/12/11 02:32:44;;;;;;;18.43;11.93;;;-1.30;99.90;;;;;;5012722;28;20178;-37
2022/12/11 02:35:25;;;;;;;18.53;11.37;;;-1.40;99.90;;;;;;5013194;28;20214;-39
2022/12/11 02:37:59;;;;;;;21.13;12.30;;;-1.40;99.90;;;;;;5030504;28;20257;-36
2022/12/11 02:40:30;;;;;;;20.20;12.20;;;-1.30;99.90;;;;;;5012475;28;20740;-37
2022/12/11 02:42:59;;;;;;;20.80;13.23;;;-1.30;99.90;;;;;;4996585;28;20174;-36
2022/12/11 02:45:27;;;;;;;18.20;12.60;;;-1.30;99.90;;;;;;5012933;28;20282;-34
2022/12/11 02:47:55;;;;;;;17.77;11.67;;;-1.30;99.90;;;;;;5016729;28;20669;-34
2022/12/11 02:50:22;;;;;;;19.37;12.07;;;-1.30;99.90;;;;;;5000425;28;20300;-37
2022/12/11 02:52:52;;;;;;;18.37;11.90;;;-1.40;99.90;;;;;;5034019;28;20202;-37
2022/12/11 02:55:19;;;;;;;18.13;11.53;;;-1.40;99.90;;;;;;5000266;28;20205;-36
2022/12/11 02:57:51;;;;;;;18.83;11.87;;;-1.40;99.90;;;;;;5016418;28;20183;-38
2022/12/11 03:00:18;;;;;;;20.33;12.03;;;-1.40;99.90;;;;;;5034646;28;20289;-39
2022/12/11 03:02:44;;;;;;;19.43;12.13;;;-1.40;99.90;;;;;;5000255;28;20270;-37
2022/12/11 03:05:12;;;;;;;17.97;11.23;;;-1.30;99.90;;;;;;5016434;28;20174;-35
2022/12/11 03:07:41;;;;;;;19.60;12.57;;;-1.30;99.90;;;;;;5016257;28;20717;-35
2022/12/11 03:10:09;;;;;;;19.60;12.30;;;-1.30;99.90;;;;;;5034313;28;20210;-38
2022/12/11 03:12:39;;;;;;;19.77;12.30;;;-1.30;99.90;;;;;;5016295;28;20237;-41
2022/12/11 03:15:09;;;;;;;21.03;12.77;;;-1.20;99.90;;;;;;5016742;28;20174;-40
2022/12/11 03:17:43;;;;;;;19.67;12.37;;;-1.20;99.90;;;;;;5015993;28;20225;-36
2022/12/11 03:20:24;;;;;;;21.87;12.80;;;-1.20;99.90;;;;;;5016399;28;20233;-40
2022/12/11 03:23:20;;;;;;;21.67;12.77;;;-1.20;99.90;;;;;;5015876;28;20202;-41
2022/12/11 03:26:09;;;;;;;18.57;11.43;;;-1.20;99.90;;;;;;5016310;28;20268;-37
2022/12/11 03:28:58;;;;;;;18.63;11.50;;;-1.20;99.90;;;;;;5016015;28;20198;-41
2022/12/11 03:31:28;;;;;;;17.30;10.60;;;-1.10;99.90;;;;;;5016102;28;20194;-40
2022/12/11 03:34:00;;;;;;;15.80;10.40;;;-1.10;99.90;;;;;;5033418;28;20254;-38
2022/12/11 03:36:31;;;;;;;17.67;11.87;;;-1.20;99.90;;;;;;5016105;28;20187;-40
2022/12/11 03:39:06;;;;;;;16.03;10.30;;;-1.20;99.90;;;;;;5033468;28;20266;-37
2022/12/11 03:41:34;;;;;;;15.93;11.07;;;-1.20;99.90;;;;;;5015722;28;20206;-41
2022/12/11 03:44:01;;;;;;;16.30;10.97;;;-1.30;99.90;;;;;;5015690;28;20235;-40
2022/12/11 03:46:31;;;;;;;19.67;11.30;;;-1.30;99.90;;;;;;5015983;28;20182;-36
2022/12/11 03:49:05;;;;;;;16.10;10.07;;;-1.30;99.90;;;;;;5015451;28;20200;-38
2022/12/11 03:51:32;;;;;;;15.97;10.03;;;-1.40;99.90;;;;;;4999616;28;20268;-40
2022/12/11 03:53:59;;;;;;;14.87;10.17;;;-1.40;99.90;;;;;;4998859;28;20175;-42
2022/12/11 03:56:26;;;;;;;14.90;9.97;;;-1.50;99.90;;;;;;5016080;28;20179;-41
2022/12/11 03:58:53;;;;;;;14.93;10.03;;;-1.50;99.90;;;;;;5032943;28;20202;-37
2022/12/11 04:01:20;;;;;;;18.00;11.33;;;-1.60;99.90;;;;;;5015734;28;20248;-38
2022/12/11 04:03:46;;;;;;;17.83;10.17;;;-1.60;99.90;;;;;;5015168;28;20664;-39
2022/12/11 04:06:11;;;;;;;16.20;10.20;;;-1.60;99.90;;;;;;5015607;28;20653;-40
2022/12/11 04:08:37;;;;;;;17.03;11.20;;;-1.60;99.90;;;;;;4995247;28;20210;-40
2022/12/11 04:15:00;;;;;;;19.17;10.30;;;-1.60;99.90;;;;;;5000795;28;20174;-39
2022/12/11 04:16:34;;;;;;;16.90;11.03;;;-1.60;99.90;;;;;;5015177;28;20186;-39
2022/12/11 04:24:28;;;;;;;19.30;11.77;;;-1.90;99.90;;;;;;5014915;28;20217;-40
2022/12/11 04:26:54;;;;;;;20.70;11.83;;;-1.90;99.90;;;;;;5014966;28;20229;-41
2022/12/11 04:29:20;;;;;;;19.07;11.57;;;-1.90;99.90;;;;;;4998620;28;20206;-40
2022/12/11 04:31:46;;;;;;;18.70;11.50;;;-1.90;99.90;;;;;;5015119;28;20224;-40
2022/12/11 04:34:11;;;;;;;19.50;11.60;;;-1.90;99.90;;;;;;5015200;28;20179;-37
2022/12/11 04:36:37;;;;;;;19.40;11.70;;;-2.00;99.90;;;;;;5014365;28;20233;-40
2022/12/11 04:39:04;;;;;;;20.77;11.97;;;-2.00;99.90;;;;;;4998583;28;20211;-40
2022/12/11 04:41:31;;;;;;;18.13;11.13;;;-2.00;99.90;;;;;;4995072;28;20203;-39
2022/12/11 04:43:56;;;;;;;17.90;11.90;;;-2.00;99.90;;;;;;4994973;28;20232;-40
2022/12/11 04:46:23;;;;;;;17.07;10.83;;;-2.00;99.90;;;;;;5009839;28;20191;-40
2022/12/11 04:48:51;;;;;;;16.27;10.70;;;-2.10;99.90;;;;;;4998384;28;20214;-41
2022/12/11 04:51:17;;;;;;;18.93;10.83;;;-2.10;99.90;;;;;;4997811;28;20264;-41
2022/12/11 04:53:44;;;;;;;19.23;10.97;;;-2.10;99.90;;;;;;5032039;28;20179;-39
2022/12/11 04:56:13;;;;;;;18.43;11.30;;;-2.10;99.90;;;;;;4997837;28;20179;-41
2022/12/11 04:58:41;;;;;;;15.27;10.40;;;-2.10;99.90;;;;;;5012465;28;20179;-40
2022/12/11 05:01:07;;;;;;;20.47;12.07;;;-2.20;99.90;;;;;;4995140;28;20226;-39
2022/12/11 05:03:33;;;;;;;17.33;11.33;;;-2.10;99.90;;;;;;5032119;28;20190;-41
2022/12/11 05:05:59;;;;;;;19.77;11.80;;;-2.20;99.90;;;;;;5007003;23;20696;-85
2022/12/11 05:08:25;;;;;;;16.63;11.07;;;-2.20;99.90;;;;;;4977245;28;20212;-85
2022/12/11 05:11:07;;;;;;;17.33;11.17;;;-2.20;99.90;;;;;;4993419;28;20181;-85
2022/12/11 05:13:37;;;;;;;16.40;9.77;;;-2.10;99.90;;;;;;4993494;28;20179;-85
2022/12/11 05:16:04;;;;;;;16.97;10.90;;;-2.20;99.90;;;;;;4977316;28;20204;-84
2022/12/11 05:18:30;;;;;;;17.40;11.40;;;-2.20;99.90;;;;;;4993604;28;20191;-85
2022/12/11 05:21:22;;;;;;;19.20;11.03;;;-2.20;99.90;;;;;;4993600;28;20180;-85
2022/12/11 05:23:48;;;;;;;18.27;11.33;;;-2.20;99.90;;;;;;4974446;28;20183;-85
2022/12/11 05:26:17;;;;;;;17.63;10.67;;;-2.20;99.90;;;;;;4977252;28;20254;-85
2022/12/11 05:28:44;;;;;;;18.70;11.20;;;-2.20;99.90;;;;;;4996440;28;20610;-84
2022/12/11 05:31:14;;;;;;;20.43;12.27;;;-2.20;99.90;;;;;;4980557;28;20266;-85
2022/12/11 05:33:40;;;;;;;17.27;11.87;;;-2.20;99.90;;;;;;4996933;28;20175;-85
2022/12/11 05:36:07;;;;;;;18.97;11.93;;;-2.20;99.90;;;;;;4996914;28;20176;-85
2022/12/11 05:38:33;;;;;;;17.83;11.00;;;-2.20;99.90;;;;;;4980810;28;20187;-85
2022/12/11 05:41:01;;;;;;;20.90;11.43;;;-2.20;99.90;;;;;;4981336;28;20207;-85
2022/12/11 05:43:30;;;;;;;19.00;11.60;;;-2.20;99.90;;;;;;4996530;28;20270;-85
2022/12/11 05:46:05;;;;;;;17.40;11.07;;;-2.20;99.90;;;;;;4996666;28;20183;-85
2022/12/11 05:48:31;;;;;;;16.67;10.57;;;-2.20;99.90;;;;;;4979780;28;20203;-85
2022/12/11 05:50:58;;;;;;;19.03;11.60;;;-2.30;99.90;;;;;;4978573;28;20266;-85
2022/12/11 05:53:49;;;;;;;19.30;12.33;;;-2.30;99.90;;;;;;4995333;28;20194;-85
2022/12/11 05:56:25;;;;;;;19.60;11.67;;;-2.30;99.90;;;;;;4979093;28;20187;-85
2022/12/11 05:58:51;;;;;;;19.57;11.63;;;-2.30;99.90;;;;;;4979323;28;20179;-84
2022/12/11 06:01:41;;;;;;;19.33;11.60;;;-2.30;99.90;;;;;;4979232;28;20249;-85
2022/12/11 06:04:08;;;;;;;19.23;11.47;;;-2.20;99.90;;;;;;4979186;28;20218;-85
2022/12/11 06:06:36;;;;;;;19.27;11.53;;;-2.20;99.90;;;;;;4979595;28;20241;-85
2022/12/11 06:09:04;;;;;;;20.93;12.43;;;-2.30;99.90;;;;;;4979855;28;20270;-85
2022/12/11 06:11:31;;;;;;;20.27;11.07;;;-2.30;99.90;;;;;;4975719;28;20247;-85
2022/12/11 06:13:58;;;;;;;17.53;10.73;;;-2.40;99.90;;;;;;4960246;28;20184;-85
2022/12/11 06:16:24;;;;;;;17.47;10.47;;;-2.40;99.90;;;;;;4959794;28;20664;-85
2022/12/11 06:18:50;;;;;;;18.80;10.30;;;-2.40;99.90;;;;;;4960440;28;20180;-84
2022/12/11 06:21:22;;;;;;;17.17;10.83;;;-2.40;99.90;;;;;;5011052;28;20186;-84
2022/12/11 06:23:50;;;;;;;20.97;13.37;;;-2.40;99.90;;;;;;4995916;28;20183;-85
2022/12/11 06:26:18;;;;;;;20.87;13.53;;;-2.40;99.90;;;;;;4979084;28;20187;-85
2022/12/11 06:28:44;;;;;;;19.07;11.97;;;-2.40;99.90;;;;;;4979598;28;20218;-84
2022/12/11 06:31:11;;;;;;;23.37;12.60;;;-2.50;99.90;;;;;;4979395;28;20182;-84
2022/12/11 06:33:37;;;;;;;19.77;11.77;;;-2.50;99.90;;;;;;4995465;28;20175;-84
2022/12/11 06:36:05;;;;;;;17.33;10.73;;;-2.50;99.90;;;;;;4978799;28;20270;-85
2022/12/11 06:38:31;;;;;;;18.20;11.10;;;-2.50;99.90;;;;;;4970190;28;20187;-85
2022/12/11 06:40:58;;;;;;;17.27;10.53;;;-2.50;99.90;;;;;;4959824;28;20679;-85
2022/12/11 06:43:24;;;;;;;19.27;10.70;;;-2.60;99.90;;;;;;4959638;28;20327;-85
2022/12/11 06:45:58;;;;;;;19.00;11.03;;;-2.60;99.90;;;;;;4959388;28;20233;-85
2022/12/11 06:48:48;;;;;;;20.07;10.90;;;-2.70;99.90;;;;;;4959871;28;20211;-85
2022/12/11 06:51:20;;;;;;;15.73;9.73;;;-2.70;99.90;;;;;;4976017;28;20164;-85
2022/12/11 06:53:51;;;;;;;17.37;10.57;;;-2.70;99.90;;;;;;4959468;28;20176;-85
2022/12/11 06:56:17;;;;;;;19.50;11.43;;;-2.70;99.90;;;;;;4959508;28;20204;-85
2022/12/11 06:58:43;;;;;;;19.33;11.53;;;-2.70;99.90;;;;;;4959600;28;20254;-85
2022/12/11 07:01:19;;;;;;;19.07;11.37;;;-2.70;99.90;;;;;;4987572;28;20186;-85
2022/12/11 07:03:45;;;;;;;15.67;10.90;;;-2.70;99.90;;;;;;4978715;28;20178;-85
2022/12/11 07:06:12;;;;;;;17.63;11.13;;;-2.80;99.90;;;;;;4994947;28;20187;-85
2022/12/11 07:08:38;;;;;;;19.70;11.87;;;-2.80;99.90;;;;;;4978900;28;20226;-85
2022/12/11 07:11:06;;;;;;;17.73;11.07;;;-2.80;99.90;;;;;;4978539;28;20180;-85
2022/12/11 07:13:33;;;;;;;17.07;11.07;;;-2.80;99.90;;;;;;4994824;28;20254;-85
2022/12/11 07:16:00;;;;;;;24.43;13.37;;;-2.80;99.90;;;;;;4978440;28;20171;-85
2022/12/11 07:18:27;;;;;;;20.00;12.17;;;-2.80;99.90;;;;;;4978426;28;20179;-85
2022/12/11 07:20:53;;;;;;;20.73;12.40;;;-2.80;99.90;;;;;;4977192;28;20184;-85
2022/12/11 07:23:19;;;;;;;25.33;14.13;;;-2.80;99.90;;;;;;4978407;28;20585;-85
2022/12/11 07:25:45;;;;;;;20.13;12.23;;;-2.80;99.90;;;;;;4978663;28;20183;-85
2022/12/11 07:28:11;;;;;;;20.80;11.43;;;-2.80;99.90;;;;;;4978744;28;20210;-85
2022/12/11 07:30:37;;;;;;;23.40;13.53;;;-2.80;99.90;;;;;;4978470;28;20258;-84
2022/12/11 07:33:04;;;;;;;21.87;12.87;;;-2.90;99.90;;;;;;4981002;28;20262;-85
2022/12/11 07:35:30;;;;;;;21.27;13.33;;;-2.90;99.90;;;;;;4982353;28;20246;-85
2022/12/11 07:37:57;;;;;;;25.77;14.03;;;-2.90;99.90;;;;;;4977760;28;20299;-85
2022/12/11 07:40:22;;;;;;;56.57;19.93;;;-2.80;99.90;;;;;;4972572;28;20184;-85
2022/12/11 07:42:48;;;;;;;84.30;23.77;;;-2.80;99.90;;;;;;4978403;28;20188;-85
2022/12/11 07:45:14;;;;;;;53.13;18.70;;;-2.80;99.90;;;;;;4978616;28;20191;-85
2022/12/11 07:47:40;;;;;;;37.77;14.90;;;-2.80;99.90;;;;;;4996045;28;20200;-85
2022/12/11 07:50:06;;;;;;;26.27;13.33;;;-2.70;99.90;;;;;;4977991;28;20207;-85
2022/12/11 07:52:33;;;;;;;26.03;16.13;;;-2.70;99.90;;;;;;4994739;28;20199;-85
2022/12/11 07:54:59;;;;;;;25.47;14.53;;;-2.60;99.90;;;;;;4978434;28;20176;-85
2022/12/11 07:57:25;;;;;;;22.63;12.40;;;-2.60;99.90;;;;;;4978249;28;20200;-84
2022/12/11 07:59:50;;;;;;;22.77;11.63;;;-2.60;99.90;;;;;;4978289;28;20183;-84
2022/12/11 08:02:16;;;;;;;20.03;12.50;;;-2.50;99.90;;;;;;4978337;28;20184;-85
2022/12/11 08:05:28;;;;;;;23.27;12.27;;;-2.50;99.90;;;;;;4977821;28;20187;-85
2022/12/11 08:07:54;;;;;;;23.97;12.83;;;-2.50;99.90;;;;;;4981451;28;20699;-84
2022/12/11 08:10:21;;;;;;;20.30;12.40;;;-2.40;99.90;;;;;;4980794;28;20209;-85
2022/12/11 08:12:47;;;;;;;24.97;13.87;;;-2.40;99.90;;;;;;4997362;28;20172;-85
2022/12/11 08:15:13;;;;;;;25.67;14.07;;;-2.40;99.90;;;;;;4978091;28;20184;-85
2022/12/11 08:17:39;;;;;;;25.17;14.07;;;-2.30;99.90;;;;;;4977796;28;20202;-85
2022/12/11 08:20:07;;;;;;;21.97;13.00;;;-2.30;99.90;;;;;;5007447;28;20179;-85
2022/12/11 08:22:33;;;;;;;21.73;12.27;;;-2.20;99.90;;;;;;4981431;28;20217;-85
2022/12/11 08:24:59;;;;;;;18.47;11.20;;;-2.20;99.90;;;;;;4981186;28;20659;-85
2022/12/11 08:27:25;;;;;;;21.23;12.10;;;-2.10;99.90;;;;;;4981164;28;20203;-85
2022/12/11 08:29:51;;;;;;;21.53;12.47;;;-2.00;99.90;;;;;;4997039;28;20199;-85
2022/12/11 08:32:17;;;;;;;21.43;12.43;;;-1.90;99.90;;;;;;4997457;28;20175;-85
2022/12/11 08:34:43;;;;;;;21.63;12.50;;;-1.90;99.90;;;;;;4997168;28;20198;-85
2022/12/11 08:37:09;;;;;;;19.13;11.87;;;-1.80;99.90;;;;;;4980867;28;20196;-85
2022/12/11 08:39:35;;;;;;;20.83;12.83;;;-1.80;99.90;;;;;;4963229;28;20188;-85
2022/12/11 08:42:01;;;;;;;21.27;12.77;;;-1.70;99.90;;;;;;4992215;28;20183;-85
2022/12/11 08:44:27;;;;;;;21.00;12.67;;;-1.60;99.90;;;;;;4996103;28;20180;-85
2022/12/11 08:47:17;;;;;;;21.30;11.60;;;-1.50;99.90;;;;;;4996900;28;20271;-85
2022/12/11 08:49:42;;;;;;;20.40;12.13;;;-1.50;99.90;;;;;;5014278;28;20191;-85
2022/12/11 08:52:08;;;;;;;21.57;12.13;;;-1.40;99.90;;;;;;4980753;28;20268;-85
2022/12/11 08:54:36;;;;;;;22.90;13.40;;;-1.30;99.90;;;;;;4980265;28;20191;-85
2022/12/11 08:57:03;;;;;;;22.97;12.70;;;-1.20;99.90;;;;;;4980765;28;20204;-85
2022/12/11 08:59:28;;;;;;;18.57;11.30;;;-1.20;99.90;;;;;;4996761;28;20706;-85
2022/12/11 09:01:55;;;;;;;21.23;12.27;;;-1.20;99.90;;;;;;4980751;28;20179;-85
2022/12/11 09:04:41;;;;;;;18.37;11.13;;;-1.20;99.90;;;;;;4979803;28;20243;-85
2022/12/11 09:07:07;;;;;;;21.10;11.93;;;-1.20;99.90;;;;;;4980232;28;20223;-85
2022/12/11 09:09:33;;;;;;;19.20;11.90;;;-1.20;99.90;;;;;;4971787;28;20751;-86
2022/12/11 09:12:00;;;;;;;20.27;11.77;;;-1.30;99.90;;;;;;4960972;28;20222;-85
2022/12/11 09:14:26;;;;;;;21.73;11.70;;;-1.30;99.90;;;;;;4972795;28;20241;-85
2022/12/11 09:16:52;;;;;;;24.17;13.50;;;-1.30;99.90;;;;;;4996055;28;20195;-85
2022/12/11 09:19:18;;;;;;;19.47;11.77;;;-1.30;99.90;;;;;;4980628;28;20230;-86
2022/12/11 09:21:44;;;;;;;21.53;12.50;;;-1.30;99.90;;;;;;4980707;28;20237;-86
2022/12/11 09:24:11;;;;;;;21.00;12.93;;;-1.30;99.90;;;;;;4980389;28;20183;-86
2022/12/11 09:26:38;;;;;;;21.37;12.63;;;-1.30;99.90;;;;;;4980956;28;20208;-86
2022/12/11 09:29:05;;;;;;;24.37;12.40;;;-1.30;99.90;;;;;;4980813;28;20663;-86
2022/12/11 09:31:33;;;;;;;21.67;12.77;;;-1.30;99.90;;;;;;4996892;28;20179;-86
2022/12/11 09:34:05;;;;;;;23.03;12.87;;;-1.20;99.90;;;;;;4980348;28;20276;-86
2022/12/11 09:36:31;;;;;;;21.40;12.83;;;-1.20;99.90;;;;;;4980474;28;20242;-86
2022/12/11 09:39:03;;;;;;;20.93;13.33;;;-1.20;99.90;;;;;;4994743;28;20184;-86
2022/12/11 09:41:34;;;;;;;21.33;12.70;;;-1.20;99.90;;;;;;4995992;28;20548;-86
2022/12/11 09:44:22;;;;;;;21.80;12.70;;;-1.10;99.90;;;;;;4991901;28;20178;-86
2022/12/11 09:46:49;;;;;;;20.23;11.87;;;-1.10;99.90;;;;;;4999616;28;20202;-86
2022/12/11 09:49:21;;;;;;;23.77;14.17;;;-1.10;99.90;;;;;;4976507;28;20208;-86
2022/12/11 09:52:14;;;;;;;24.13;13.37;;;-1.10;99.90;;;;;;4961575;28;20168;-86
2022/12/11 09:54:51;;;;;;;19.00;11.90;;;-1.10;99.90;;;;;;4992469;28;20169;-86
2022/12/11 09:57:45;;;;;;;21.50;11.80;;;-1.10;99.90;;;;;;4976499;28;20195;-86
2022/12/11 10:00:14;;;;;;;20.77;12.03;;;-1.00;99.90;;;;;;4960384;28;20235;-86
2022/12/11 10:03:03;;;;;;;20.67;12.40;;;-1.00;99.90;;;;;;4976250;28;20460;-86
2022/12/11 10:05:52;;;;;;;19.80;12.33;;;-1.00;99.90;;;;;;4976179;28;20169;-86
2022/12/11 10:08:46;;;;;;;18.87;11.97;;;-1.00;99.90;;;;;;4959617;28;20213;-86
2022/12/11 10:11:28;;;;;;;19.73;12.20;;;-0.90;99.90;;;;;;4960550;28;20191;-86
2022/12/11 10:17:30;;;;;;;19.97;11.50;;;-0.90;99.90;;;;;;4976477;28;20204;-86
2022/12/11 10:20:01;;;;;;;24.13;14.17;;;-0.90;99.90;;;;;;5013933;28;20197;-85
2022/12/11 10:22:31;;;;;;;24.23;13.17;;;-0.90;99.90;;;;;;4984574;28;20176;-86
2022/12/11 10:25:03;;;;;;;21.33;12.60;;;-0.80;99.90;;;;;;4979050;28;20282;-85
2022/12/11 10:27:34;;;;;;;23.43;13.27;;;-0.80;99.90;;;;;;4978053;28;20204;-86
2022/12/11 10:30:16;;;;;;;20.73;12.20;;;-0.80;99.90;;;;;;4978395;28;20199;-86
2022/12/11 10:32:53;;;;;;;20.43;12.60;;;-0.80;99.90;;;;;;5009944;28;20175;-86
2022/12/11 10:35:44;;;;;;;21.57;12.67;;;-0.70;99.90;;;;;;4979219;28;20186;-86
2022/12/11 10:38:20;;;;;;;25.00;13.90;;;-0.70;99.90;;;;;;4966145;28;20215;-85
2022/12/11 10:40:51;;;;;;;28.80;14.70;;;-0.70;99.90;;;;;;4985893;28;20272;-86
2022/12/11 10:43:17;;;;;;;28.47;13.13;;;-0.70;99.90;;;;;;4979324;28;20240;-86
2022/12/11 10:45:53;;;;;;;25.47;14.10;;;-0.70;99.90;;;;;;4979390;28;20183;-86
2022/12/11 10:48:21;;;;;;;25.90;14.20;;;-0.70;99.90;;;;;;4987373;28;20201;-86
2022/12/11 10:50:57;;;;;;;26.80;15.10;;;-0.60;99.90;;;;;;4962474;28;20678;-86
2022/12/11 10:53:24;;;;;;;29.87;16.03;;;-0.60;99.90;;;;;;4963667;28;20187;-85
2022/12/11 10:55:51;;;;;;;27.10;14.70;;;-0.50;99.90;;;;;;4968468;28;20179;-86
2022/12/11 10:58:21;;;;;;;21.57;13.27;;;-0.50;99.90;;;;;;4970531;28;20208;-86
2022/12/11 11:01:18;;;;;;;22.80;13.80;;;-0.40;99.90;;;;;;4977942;28;20184;-86
2022/12/11 11:04:03;;;;;;;19.97;12.30;;;-0.30;99.90;;;;;;4959683;28;20188;-86
2022/12/11 11:06:32;;;;;;;19.90;11.93;;;-0.20;99.90;;;;;;4990265;28;20245;-86
2022/12/11 11:08:59;;;;;;;21.97;13.57;;;-0.20;99.90;;;;;;4982520;28;20621;-86
2022/12/11 11:11:31;;;;;;;22.40;13.27;;;-0.10;99.90;;;;;;4982643;28;20177;-86
2022/12/11 11:14:10;;;;;;;20.60;12.50;;;-0.10;99.90;;;;;;4982694;28;20186;-86
2022/12/11 11:16:42;;;;;;;22.60;12.70;;;0.00;99.90;;;;;;4998598;28;20685;-86
2022/12/11 11:19:21;;;;;;;20.97;12.57;;;0.10;99.90;;;;;;4974989;28;20194;-86
2022/12/11 11:21:53;;;;;;;20.10;12.33;;;0.10;99.90;;;;;;4966826;28;20228;-86
2022/12/11 11:24:31;;;;;;;20.50;12.47;;;0.20;99.90;;;;;;4973484;28;20681;-86
2022/12/11 11:27:00;;;;;;;22.53;13.50;;;0.30;99.90;;;;;;4963131;28;20567;-86
2022/12/11 11:29:33;;;;;;;20.50;12.80;;;0.30;99.90;;;;;;4975948;28;20209;-86
2022/12/11 11:32:16;;;;;;;20.13;12.43;;;0.40;99.90;;;;;;4984407;28;20183;-86
2022/12/11 11:34:44;;;;;;;23.03;13.57;;;0.40;99.90;;;;;;4970491;28;20245;-86
2022/12/11 11:37:30;;;;;;;19.93;12.47;;;0.40;99.90;;;;;;5009401;28;20292;-86
2022/12/11 11:40:05;;;;;;;19.47;12.50;;;0.50;99.90;;;;;;4966178;28;20193;-86
2022/12/11 11:43:02;;;;;;;17.63;11.90;;;0.50;99.90;;;;;;4991338;28;20183;-86
2022/12/11 11:45:48;;;;;;;20.43;12.67;;;0.60;99.90;;;;;;4966017;28;20186;-86
2022/12/11 11:48:50;;;;;;;21.97;12.33;;;0.60;99.90;;;;;;4986454;28;20247;-86
2022/12/11 11:52:00;;;;;;;18.67;11.67;;;0.60;99.90;;;;;;4976057;28;20201;-86
2022/12/11 11:54:53;;;;;;;17.40;11.37;;;0.50;99.90;;;;;;4979514;28;20208;-86
2022/12/11 11:57:45;;;;;;;19.97;11.73;;;0.60;99.90;;;;;;4986423;28;20200;-86
2022/12/11 12:00:23;;;;;;;17.87;11.20;;;0.60;99.90;;;;;;4979062;28;20623;-86
2022/12/11 12:02:59;;;;;;;19.73;12.57;;;0.60;99.90;;;;;;4962388;28;20267;-86
2022/12/11 12:06:09;;;;;;;19.53;12.23;;;0.60;99.90;;;;;;4965439;28;20185;-86
2022/12/11 12:09:04;;;;;;;28.37;11.57;;;0.70;99.90;;;;;;4981989;28;20245;-86
2022/12/11 12:11:55;;;;;;;18.53;12.40;;;0.70;99.90;;;;;;4982287;28;20178;-86
2022/12/11 12:14:53;;;;;;;18.30;12.43;;;0.80;99.90;;;;;;4987947;28;20218;-86
2022/12/11 12:17:47;;;;;;;21.37;12.70;;;0.90;99.90;;;;;;4996208;28;20306;-86
2022/12/11 12:20:56;;;;;;;20.27;12.20;;;0.90;99.90;;;;;;4970377;28;20187;-86
2022/12/11 12:23:43;;;;;;;19.30;11.57;;;0.90;99.90;;;;;;4962196;28;20187;-86
2022/12/11 12:26:34;;;;;;;19.30;12.23;;;0.90;99.90;;;;;;4962510;28;20187;-86
2022/12/11 12:29:28;;;;;;;23.13;12.17;;;1.00;99.90;;;;;;4957790;28;20222;-86
2022/12/11 12:32:24;;;;;;;20.97;12.43;;;1.00;99.90;;;;;;4962199;28;20180;-86
2022/12/11 12:34:59;;;;;;;19.63;12.20;;;1.00;99.90;;;;;;4978161;28;20196;-86
2022/12/11 12:37:46;;;;;;;17.43;11.43;;;1.10;99.90;;;;;;4977216;28;20202;-86
2022/12/11 12:40:33;;;;;;;18.83;12.13;;;1.10;99.90;;;;;;4982335;28;20182;-86
2022/12/11 12:43:43;;;;;;;19.90;11.90;;;1.20;99.90;;;;;;4978263;28;20183;-86
2022/12/11 12:46:27;;;;;;;17.37;11.13;;;1.20;99.90;;;;;;4978453;28;20182;-86
2022/12/11 12:48:55;;;;;;;18.50;11.50;;;1.30;99.90;;;;;;4962430;28;20241;-86
2022/12/11 12:51:43;;;;;;;18.83;11.60;;;1.30;99.90;;;;;;4972342;28;20183;-86
2022/12/11 12:54:15;;;;;;;19.47;11.07;;;1.20;99.90;;;;;;4981746;28;20201;-85
2022/12/11 12:56:50;;;;;;;18.60;11.90;;;1.30;99.90;;;;;;4975146;28;20205;-85
2022/12/11 12:59:26;;;;;;;17.90;11.60;;;1.20;99.90;;;;;;4987844;28;20260;-86
2022/12/11 13:02:01;;;;;;;18.17;12.27;;;1.20;99.90;;;;;;4965649;28;20191;-86
2022/12/11 13:04:45;;;;;;;18.07;11.93;;;1.20;99.90;;;;;;4985712;28;20173;-86
2022/12/11 13:07:25;;;;;;;19.97;12.07;;;1.20;99.90;;;;;;4977931;28;20215;-86
2022/12/11 13:10:19;;;;;;;19.10;12.07;;;1.30;99.90;;;;;;4987550;28;20187;-86